Time;durP1;ratioP1;P1;durP2;ratioP2;P2;SDS_P1;SDS_P2;PMS_P1;PMS_P2;Temp;Humidity;BMP_temperature;BMP_pressure;BME280_temperature;BME280_humidity;BME280_pressure;Samples;Min_cycle;Max_cycle;Signal;HPM_P1;HPM_P2
2023/08/25 00:01:03;;;;;;;5.72;4.03;;;21.10;99.90;;;;;;4930329;29;20062;-82
2023/08/25 00:03:29;;;;;;;8.40;3.80;;;21.00;99.90;;;;;;4938287;29;20031;-80
2023/08/25 00:05:54;;;;;;;3.75;3.40;;;21.00;99.90;;;;;;4934690;29;20042;-79
2023/08/25 00:08:21;;;;;;;5.43;3.75;;;21.00;99.90;;;;;;4930708;29;20031;-80
2023/08/25 00:10:48;;;;;;;6.22;3.88;;;20.90;99.90;;;;;;4934446;29;20031;-80
2023/08/25 00:13:14;;;;;;;7.40;3.83;;;20.90;99.90;;;;;;4936267;29;20171;-82
2023/08/25 00:15:41;;;;;;;6.65;3.85;;;20.90;99.90;;;;;;4933545;29;20071;-81
2023/08/25 00:18:07;;;;;;;4.43;3.67;;;20.90;99.90;;;;;;4933976;29;20075;-82
2023/08/25 00:20:33;;;;;;;5.78;3.78;;;20.90;99.90;;;;;;4932564;29;20516;-82
2023/08/25 00:22:59;;;;;;;4.07;3.42;;;20.80;99.90;;;;;;4933262;29;20043;-82
2023/08/25 00:25:24;;;;;;;3.78;3.30;;;20.80;99.90;;;;;;4930187;29;20032;-82
2023/08/25 00:27:50;;;;;;;5.03;3.65;;;20.80;99.90;;;;;;4925706;29;20405;-81
2023/08/25 00:30:16;;;;;;;3.58;3.00;;;20.70;99.90;;;;;;4928112;29;20044;-80
2023/08/25 00:32:42;;;;;;;5.22;3.63;;;20.60;99.90;;;;;;4913116;29;20043;-81
2023/08/25 00:35:08;;;;;;;3.28;2.97;;;20.60;99.90;;;;;;4933292;29;20039;-80
2023/08/25 00:37:34;;;;;;;5.65;3.20;;;20.60;99.90;;;;;;4919611;29;20031;-79
2023/08/25 00:40:00;;;;;;;4.50;3.20;;;20.60;99.90;;;;;;4923402;29;20051;-80
2023/08/25 00:42:26;;;;;;;4.57;3.10;;;20.60;99.90;;;;;;4936192;29;20048;-81
2023/08/25 00:44:51;;;;;;;4.20;3.28;;;20.50;99.90;;;;;;4929815;29;20553;-81
2023/08/25 00:47:19;;;;;;;3.95;3.42;;;20.50;99.90;;;;;;4947812;28;20122;-80
2023/08/25 00:49:46;;;;;;;5.30;3.22;;;20.50;99.90;;;;;;4935879;29;20385;-80
2023/08/25 00:52:14;;;;;;;3.75;3.08;;;20.50;99.90;;;;;;4919448;29;20082;-81
2023/08/25 00:54:40;;;;;;;5.55;3.88;;;20.50;99.90;;;;;;4930741;29;20043;-82
2023/08/25 00:57:06;;;;;;;4.35;3.50;;;20.40;99.90;;;;;;4930403;29;20040;-82
2023/08/25 00:59:33;;;;;;;8.88;3.97;;;20.40;99.90;;;;;;4930872;29;20038;-80
2023/08/25 01:01:59;;;;;;;6.80;3.10;;;20.30;99.90;;;;;;4927762;29;20036;-81
2023/08/25 01:04:25;;;;;;;3.90;3.50;;;20.30;99.90;;;;;;4914465;29;20035;-80
2023/08/25 01:06:51;;;;;;;3.42;3.13;;;20.30;99.90;;;;;;4919024;29;20040;-80
2023/08/25 01:09:18;;;;;;;4.28;3.78;;;20.20;99.90;;;;;;4940762;29;20060;-81
2023/08/25 01:12:00;;;;;;;6.47;3.70;;;20.20;99.90;;;;;;4926317;29;20028;-80
2023/08/25 01:14:56;;;;;;;6.07;3.67;;;20.10;99.90;;;;;;4934971;28;20043;-80
2023/08/25 01:17:33;;;;;;;4.95;3.17;;;20.10;99.90;;;;;;4939184;29;20489;-80
2023/08/25 01:20:07;;;;;;;4.03;2.95;;;20.10;99.90;;;;;;4931942;29;20122;-79
2023/08/25 01:22:39;;;;;;;6.45;3.45;;;20.10;99.90;;;;;;4935450;29;20038;-81
2023/08/25 01:25:31;;;;;;;4.97;3.17;;;20.00;99.90;;;;;;4924130;29;20548;-79
2023/08/25 01:28:04;;;;;;;4.57;2.90;;;20.00;99.90;;;;;;4932870;29;20043;-79
2023/08/25 01:30:32;;;;;;;7.60;3.20;;;19.90;99.90;;;;;;4930664;29;20041;-80
2023/08/25 01:32:59;;;;;;;5.15;2.97;;;19.90;99.90;;;;;;4928074;29;20043;-81
2023/08/25 01:35:43;;;;;;;4.15;2.83;;;19.80;99.90;;;;;;4926989;29;20040;-80
2023/08/25 01:38:10;;;;;;;4.20;3.00;;;19.80;99.90;;;;;;4926160;29;20039;-81
2023/08/25 01:40:44;;;;;;;4.28;2.90;;;19.80;99.90;;;;;;4926884;29;20032;-80
2023/08/25 01:43:13;;;;;;;3.30;2.42;;;19.70;99.90;;;;;;4925232;29;20051;-79
2023/08/25 01:45:40;;;;;;;2.80;2.50;;;19.70;99.90;;;;;;4928590;29;20031;-81
2023/08/25 01:48:07;;;;;;;3.47;2.40;;;19.60;99.90;;;;;;4933163;29;20051;-80
2023/08/25 01:50:35;;;;;;;7.68;2.83;;;19.60;99.90;;;;;;4929234;29;20031;-81
2023/08/25 01:53:02;;;;;;;3.13;2.08;;;19.50;99.90;;;;;;4929532;29;20040;-81
2023/08/25 01:55:29;;;;;;;3.67;2.30;;;19.50;99.90;;;;;;4930320;29;20095;-81
2023/08/25 01:57:57;;;;;;;4.93;2.70;;;19.50;99.90;;;;;;4921624;29;20029;-82
2023/08/25 02:00:22;;;;;;;3.67;2.33;;;19.50;99.90;;;;;;4938193;29;20047;-82
2023/08/25 02:02:48;;;;;;;5.10;2.35;;;19.40;99.90;;;;;;4936589;29;20040;-82
2023/08/25 02:05:14;;;;;;;3.15;2.00;;;19.40;99.90;;;;;;4929801;29;20606;-82
2023/08/25 02:07:40;;;;;;;3.58;2.20;;;19.30;99.90;;;;;;4932918;29;20489;-80
2023/08/25 02:10:06;;;;;;;2.05;1.90;;;19.30;99.90;;;;;;4927501;29;20036;-82
2023/08/25 02:12:33;;;;;;;2.63;2.00;;;19.30;99.90;;;;;;4924208;29;20098;-82
2023/08/25 02:14:59;;;;;;;2.65;2.00;;;19.20;99.90;;;;;;4947429;28;20095;-79
2023/08/25 02:17:25;;;;;;;3.65;2.20;;;19.20;99.90;;;;;;4929247;29;20036;-78
2023/08/25 02:19:51;;;;;;;3.13;2.28;;;19.20;99.90;;;;;;4941574;29;20032;-81
2023/08/25 02:22:17;;;;;;;7.63;2.85;;;19.20;99.90;;;;;;4928472;29;20036;-82
2023/08/25 02:24:43;;;;;;;2.40;2.00;;;19.20;99.90;;;;;;4902938;29;20819;-79
2023/08/25 02:27:09;;;;;;;5.57;2.20;;;19.20;99.90;;;;;;4931444;29;20063;-80
2023/08/25 02:29:35;;;;;;;3.70;2.10;;;19.20;99.90;;;;;;4930822;29;20099;-81
2023/08/25 02:32:03;;;;;;;3.47;1.92;;;19.20;99.90;;;;;;4930891;29;20691;-81
2023/08/25 02:34:29;;;;;;;2.55;2.17;;;19.10;99.90;;;;;;4921677;29;20119;-80
2023/08/25 02:36:55;;;;;;;4.57;2.22;;;19.10;99.90;;;;;;4920258;29;20050;-82
2023/08/25 02:39:21;;;;;;;3.10;1.80;;;19.10;99.90;;;;;;4928699;29;20036;-80
2023/08/25 02:41:47;;;;;;;3.92;2.22;;;19.10;99.90;;;;;;4908196;29;20421;-80
2023/08/25 02:44:12;;;;;;;3.60;2.08;;;19.10;99.90;;;;;;4915204;29;20040;-81
2023/08/25 02:46:39;;;;;;;4.35;2.20;;;19.00;99.90;;;;;;4941978;28;20035;-80
2023/08/25 02:49:05;;;;;;;4.82;2.00;;;19.00;99.90;;;;;;4925620;29;20402;-81
2023/08/25 02:51:31;;;;;;;5.93;2.30;;;19.00;99.90;;;;;;4941728;29;20522;-81
2023/08/25 02:53:57;;;;;;;2.50;1.80;;;19.00;99.90;;;;;;4917837;29;20029;-80
2023/08/25 02:56:23;;;;;;;6.30;2.33;;;19.00;99.90;;;;;;4904473;29;20046;-80
2023/08/25 02:58:49;;;;;;;4.32;2.55;;;19.00;99.90;;;;;;4947630;28;20036;-82
2023/08/25 03:01:14;;;;;;;3.55;2.28;;;18.90;99.90;;;;;;4925349;29;20043;-81
2023/08/25 03:03:40;;;;;;;3.58;2.00;;;18.90;99.90;;;;;;4933636;29;20126;-81
2023/08/25 03:06:06;;;;;;;6.05;2.28;;;18.90;99.90;;;;;;4935002;29;20043;-79
2023/08/25 03:08:32;;;;;;;3.35;1.85;;;18.90;99.90;;;;;;4928699;29;20088;-80
2023/08/25 03:11:02;;;;;;;4.43;2.17;;;18.90;99.90;;;;;;4930830;29;20095;-79
2023/08/25 03:13:30;;;;;;;2.15;1.58;;;18.80;99.90;;;;;;4930177;29;20036;-81
2023/08/25 03:15:56;;;;;;;3.08;2.05;;;18.80;99.90;;;;;;4923625;29;20036;-81
2023/08/25 03:18:22;;;;;;;2.58;1.80;;;18.80;99.90;;;;;;4914571;29;20558;-80
2023/08/25 03:20:52;;;;;;;1.90;1.70;;;18.80;99.90;;;;;;4938010;29;20040;-81
2023/08/25 03:23:20;;;;;;;2.45;2.03;;;18.80;99.90;;;;;;4931745;29;20034;-80
2023/08/25 03:25:46;;;;;;;3.20;1.92;;;18.70;99.90;;;;;;4927866;29;20024;-80
2023/08/25 03:28:12;;;;;;;4.00;1.70;;;18.70;99.90;;;;;;4926604;29;20064;-80
2023/08/25 03:30:38;;;;;;;2.72;2.00;;;18.70;99.90;;;;;;4926459;29;20066;-79
2023/08/25 03:33:05;;;;;;;2.35;1.70;;;18.70;99.90;;;;;;4945262;29;20051;-80
2023/08/25 03:35:35;;;;;;;2.72;1.98;;;18.70;99.90;;;;;;4937440;29;20028;-82
2023/08/25 03:38:02;;;;;;;3.55;2.20;;;18.60;99.90;;;;;;4942823;29;20028;-81
2023/08/25 03:40:28;;;;;;;3.05;2.00;;;18.60;99.90;;;;;;4941168;29;20451;-80
2023/08/25 03:42:54;;;;;;;6.57;2.33;;;18.50;99.90;;;;;;4926372;29;20099;-81
2023/08/25 03:45:21;;;;;;;6.45;2.05;;;18.50;99.90;;;;;;4944208;28;20130;-78
2023/08/25 03:47:47;;;;;;;4.40;2.10;;;18.50;99.90;;;;;;4934604;29;20032;-81
2023/08/25 03:50:13;;;;;;;2.65;2.30;;;18.50;99.90;;;;;;4927676;29;20035;-80
2023/08/25 03:52:39;;;;;;;4.63;2.05;;;18.40;99.90;;;;;;4932105;29;20075;-80
2023/08/25 03:55:05;;;;;;;4.47;1.88;;;18.40;99.90;;;;;;4935781;28;20046;-80
2023/08/25 03:57:32;;;;;;;3.13;1.70;;;18.40;99.90;;;;;;4947368;28;20040;-81
2023/08/25 03:59:58;;;;;;;3.05;1.88;;;18.40;99.90;;;;;;4945141;29;20099;-79
2023/08/25 04:02:23;;;;;;;2.75;1.92;;;18.30;99.90;;;;;;4932423;29;20035;-80
2023/08/25 04:04:51;;;;;;;4.80;1.77;;;18.40;99.90;;;;;;4924930;29;20083;-81
2023/08/25 04:07:18;;;;;;;4.05;1.95;;;18.30;99.90;;;;;;4931753;29;20139;-82
2023/08/25 04:09:44;;;;;;;5.07;1.95;;;18.30;99.90;;;;;;4942659;29;20204;-80
2023/08/25 04:12:11;;;;;;;3.38;1.80;;;18.30;99.90;;;;;;4923753;29;20645;-80
2023/08/25 04:14:37;;;;;;;6.00;1.77;;;18.30;99.90;;;;;;4921678;29;20048;-80
2023/08/25 04:17:04;;;;;;;4.32;2.30;;;18.20;99.90;;;;;;4934205;29;20043;-81
2023/08/25 04:19:30;;;;;;;3.53;1.80;;;18.20;99.90;;;;;;4912519;29;20043;-78
2023/08/25 04:21:56;;;;;;;3.63;2.45;;;18.20;99.90;;;;;;4907099;29;20037;-79
2023/08/25 04:24:22;;;;;;;4.95;2.00;;;18.10;99.90;;;;;;4911008;29;20063;-79
2023/08/25 04:26:47;;;;;;;5.38;1.90;;;18.10;99.90;;;;;;4913436;29;20388;-80
2023/08/25 04:29:13;;;;;;;5.07;2.50;;;18.10;99.90;;;;;;4941593;29;20043;-80
2023/08/25 04:31:40;;;;;;;3.40;2.08;;;18.20;99.90;;;;;;4940033;29;20031;-82
2023/08/25 04:34:06;;;;;;;6.03;2.25;;;18.20;99.90;;;;;;4932409;29;20122;-81
2023/08/25 04:36:36;;;;;;;4.03;1.77;;;18.20;99.90;;;;;;4947030;28;20051;-79
2023/08/25 04:39:03;;;;;;;4.68;2.22;;;18.10;99.90;;;;;;4944227;29;20109;-79
2023/08/25 04:41:29;;;;;;;4.63;2.00;;;18.10;99.90;;;;;;4948706;28;20036;-82
2023/08/25 04:43:55;;;;;;;2.75;1.85;;;18.10;99.90;;;;;;4916858;29;20167;-80
2023/08/25 04:46:21;;;;;;;4.43;2.10;;;18.10;99.90;;;;;;4915050;29;20028;-79
2023/08/25 04:48:48;;;;;;;5.03;2.00;;;18.10;99.90;;;;;;4933285;29;20039;-81
2023/08/25 04:51:14;;;;;;;4.78;2.65;;;18.20;99.90;;;;;;4925974;29;20057;-81
2023/08/25 04:53:41;;;;;;;3.63;2.50;;;18.20;99.90;;;;;;4933975;29;20382;-79
2023/08/25 04:56:06;;;;;;;3.08;1.65;;;18.20;99.90;;;;;;4924439;29;20036;-80
2023/08/25 04:58:32;;;;;;;2.00;1.80;;;18.20;99.90;;;;;;4915165;29;20039;-81
2023/08/25 05:00:58;;;;;;;3.78;2.13;;;18.20;99.90;;;;;;4914213;29;20047;-81
2023/08/25 05:03:24;;;;;;;5.88;1.90;;;18.20;99.90;;;;;;4932265;29;20035;-82
2023/08/25 05:05:50;;;;;;;2.85;1.70;;;18.20;99.90;;;;;;4921458;29;20131;-81
2023/08/25 05:08:16;;;;;;;3.65;1.73;;;18.30;99.90;;;;;;4926820;29;20083;-81
2023/08/25 05:10:44;;;;;;;3.53;2.20;;;18.30;99.90;;;;;;4926927;29;20036;-80
2023/08/25 05:13:10;;;;;;;4.15;2.00;;;18.30;99.90;;;;;;4930723;29;20055;-81
2023/08/25 05:15:36;;;;;;;3.75;2.10;;;18.30;99.90;;;;;;4934204;29;20067;-82
2023/08/25 05:18:02;;;;;;;3.65;2.10;;;18.30;99.90;;;;;;4939839;29;20059;-81
2023/08/25 05:20:28;;;;;;;4.45;2.10;;;18.30;99.90;;;;;;4940346;29;20055;-81
2023/08/25 05:22:55;;;;;;;5.72;2.25;;;18.40;99.90;;;;;;4932885;29;20040;-81
2023/08/25 05:25:23;;;;;;;4.05;2.45;;;18.40;99.90;;;;;;4915013;29;20043;-81
2023/08/25 05:27:49;;;;;;;5.07;2.60;;;18.50;99.90;;;;;;4922322;29;20592;-82
2023/08/25 05:30:15;;;;;;;4.72;2.08;;;18.50;99.90;;;;;;4933089;29;20542;-83
2023/08/25 05:32:43;;;;;;;5.50;2.25;;;18.60;99.90;;;;;;4928534;29;20505;-81
2023/08/25 05:35:44;;;;;;;4.18;2.10;;;18.60;99.90;;;;;;4917518;29;20134;-79
2023/08/25 05:38:12;;;;;;;5.30;3.03;;;18.70;99.90;;;;;;4932499;29;20048;-83
2023/08/25 05:40:38;;;;;;;4.35;2.67;;;18.70;99.90;;;;;;4931275;29;20067;-81
2023/08/25 05:43:03;;;;;;;8.40;3.17;;;18.70;99.90;;;;;;4919314;29;20024;-82
2023/08/25 05:45:31;;;;;;;7.10;3.13;;;18.80;99.90;;;;;;4947819;28;20055;-81
2023/08/25 05:47:56;;;;;;;5.22;3.58;;;18.80;99.90;;;;;;4938789;29;20035;-80
2023/08/25 05:50:22;;;;;;;6.43;2.90;;;18.90;99.90;;;;;;4931898;29;20038;-79
2023/08/25 05:52:49;;;;;;;5.95;3.08;;;19.00;99.90;;;;;;4935727;29;20028;-81
2023/08/25 05:55:15;;;;;;;4.97;3.00;;;19.20;99.90;;;;;;4929952;29;20031;-81
2023/08/25 05:57:41;;;;;;;9.50;4.53;;;19.40;99.90;;;;;;4935930;29;20058;-79
2023/08/25 06:00:08;;;;;;;4.65;3.10;;;19.60;99.90;;;;;;4942002;29;20117;-82
2023/08/25 06:02:39;;;;;;;4.03;2.63;;;19.90;99.90;;;;;;4937123;28;20032;-81
2023/08/25 06:05:05;;;;;;;4.75;2.97;;;20.20;99.90;;;;;;4936463;28;20035;-80
2023/08/25 06:07:31;;;;;;;4.43;2.83;;;20.30;99.90;;;;;;4931609;29;20516;-84
2023/08/25 06:09:57;;;;;;;6.18;3.15;;;20.40;99.90;;;;;;4937947;29;20035;-80
2023/08/25 06:12:23;;;;;;;2.90;2.65;;;20.50;99.90;;;;;;4941854;29;20043;-82
2023/08/25 06:15:08;;;;;;;4.97;2.90;;;20.60;99.90;;;;;;4936052;29;20126;-80
2023/08/25 06:17:33;;;;;;;6.13;2.60;;;20.80;99.90;;;;;;4946399;29;20523;-81
2023/08/25 06:19:59;;;;;;;4.18;2.42;;;21.00;99.90;;;;;;4934845;29;20031;-80
2023/08/25 06:22:25;;;;;;;7.25;2.78;;;21.10;99.90;;;;;;4932017;29;20155;-82
2023/08/25 06:24:50;;;;;;;6.70;3.20;;;21.20;99.90;;;;;;4917484;29;20647;-79
2023/08/25 06:27:18;;;;;;;5.68;3.15;;;21.40;99.90;;;;;;4933888;29;20424;-81
2023/08/25 06:29:44;;;;;;;3.20;2.45;;;21.50;99.90;;;;;;4935352;29;20441;-82
2023/08/25 06:32:09;;;;;;;5.07;2.58;;;21.70;99.90;;;;;;4930147;29;20104;-80
2023/08/25 06:34:35;;;;;;;4.97;2.90;;;22.00;99.90;;;;;;4937948;29;20396;-82
2023/08/25 06:37:01;;;;;;;2.88;2.47;;;22.10;99.90;;;;;;4931016;29;20144;-82
2023/08/25 06:39:26;;;;;;;2.60;2.25;;;22.00;99.90;;;;;;4940893;29;20059;-80
2023/08/25 06:41:52;;;;;;;3.42;2.38;;;22.20;99.90;;;;;;4936030;29;20040;-81
2023/08/25 06:44:18;;;;;;;4.88;2.47;;;22.40;99.90;;;;;;4919883;29;20035;-80
2023/08/25 06:46:44;;;;;;;2.88;1.92;;;22.60;99.90;;;;;;4941409;29;20027;-82
2023/08/25 06:49:11;;;;;;;4.90;1.98;;;23.00;99.90;;;;;;4931629;29;20040;-80
2023/08/25 06:51:37;;;;;;;4.78;2.25;;;23.40;99.90;;;;;;4939488;28;20028;-81
2023/08/25 06:54:03;;;;;;;5.30;3.17;;;23.60;99.90;;;;;;4934938;29;20031;-80
2023/08/25 06:56:29;;;;;;;4.85;2.35;;;23.80;99.90;;;;;;4933114;29;20059;-81
2023/08/25 06:58:54;;;;;;;5.68;2.60;;;24.00;99.90;;;;;;4930400;29;20035;-81
2023/08/25 07:01:20;;;;;;;4.65;2.38;;;24.10;99.90;;;;;;4941411;29;20445;-80
2023/08/25 07:03:46;;;;;;;5.80;2.60;;;24.30;99.90;;;;;;4928922;29;20127;-81
2023/08/25 07:06:12;;;;;;;4.70;2.40;;;24.30;99.90;;;;;;4924473;29;20032;-81
2023/08/25 07:08:38;;;;;;;4.43;2.65;;;24.40;99.90;;;;;;4923237;29;20028;-82
2023/08/25 07:11:04;;;;;;;5.60;2.60;;;24.70;99.90;;;;;;4934287;29;20636;-82
2023/08/25 07:13:31;;;;;;;7.10;2.45;;;25.00;99.90;;;;;;4938616;29;20042;-84
2023/08/25 07:15:57;;;;;;;3.25;2.08;;;25.10;99.90;;;;;;4931995;29;20039;-83
2023/08/25 07:18:24;;;;;;;3.55;2.60;;;25.20;99.90;;;;;;4933494;29;20035;-80
2023/08/25 07:20:51;;;;;;;3.75;2.03;;;25.30;99.90;;;;;;4926059;29;20461;-81
2023/08/25 07:23:18;;;;;;;6.82;2.15;;;25.50;99.90;;;;;;4927199;29;20162;-81
2023/08/25 07:25:44;;;;;;;3.47;2.40;;;25.70;99.90;;;;;;4929349;29;20027;-80
2023/08/25 07:28:10;;;;;;;6.80;3.25;;;25.90;99.90;;;;;;4933299;29;20050;-80
2023/08/25 07:30:39;;;;;;;5.93;2.25;;;26.00;99.90;;;;;;4928618;29;20472;-80
2023/08/25 07:33:08;;;;;;;3.45;2.28;;;26.10;99.90;;;;;;4931005;29;20028;-81
2023/08/25 07:35:37;;;;;;;4.22;2.20;;;26.20;99.90;;;;;;4930484;29;20055;-81
2023/08/25 07:38:04;;;;;;;2.67;1.92;;;26.10;99.90;;;;;;4932067;29;20501;-81
2023/08/25 07:40:31;;;;;;;2.92;2.33;;;26.00;99.90;;;;;;4927260;29;20131;-80
2023/08/25 07:43:03;;;;;;;3.20;2.35;;;26.00;99.90;;;;;;4923607;29;20063;-79
2023/08/25 07:45:33;;;;;;;3.00;2.33;;;26.00;99.90;;;;;;4929273;29;20686;-80
2023/08/25 07:48:01;;;;;;;4.63;2.10;;;25.80;99.90;;;;;;4933711;29;20037;-80
2023/08/25 07:50:29;;;;;;;4.63;2.40;;;25.60;99.90;;;;;;4931581;29;20040;-81
2023/08/25 07:52:55;;;;;;;3.05;1.90;;;25.50;99.90;;;;;;4934355;28;20027;-80
2023/08/25 07:55:20;;;;;;;3.42;2.30;;;25.50;99.90;;;;;;4923300;29;20203;-81
2023/08/25 07:57:46;;;;;;;3.33;2.20;;;25.50;99.90;;;;;;4938149;29;20036;-80
2023/08/25 08:00:15;;;;;;;4.38;1.92;;;25.30;99.90;;;;;;4937094;29;20038;-81
2023/08/25 08:02:45;;;;;;;3.55;2.40;;;25.40;99.90;;;;;;4931528;29;20044;-80
2023/08/25 08:05:11;;;;;;;3.20;2.17;;;25.50;99.90;;;;;;4933632;29;20074;-81
2023/08/25 08:07:38;;;;;;;3.70;2.25;;;25.40;99.90;;;;;;4935110;29;20473;-79
2023/08/25 08:10:05;;;;;;;3.72;2.80;;;25.40;99.90;;;;;;4923544;29;20079;-81
2023/08/25 08:12:31;;;;;;;2.83;2.30;;;25.40;99.90;;;;;;4929756;29;20036;-80
2023/08/25 08:14:57;;;;;;;5.47;2.83;;;25.50;99.90;;;;;;4924194;29;20035;-79
2023/08/25 08:17:23;;;;;;;2.45;2.20;;;25.60;99.90;;;;;;4920240;29;20039;-81
2023/08/25 08:19:48;;;;;;;3.97;2.40;;;25.70;99.90;;;;;;4923016;29;20568;-80
2023/08/25 08:22:14;;;;;;;2.70;2.50;;;25.50;99.90;;;;;;4928397;29;20043;-79
2023/08/25 08:24:47;;;;;;;2.78;2.30;;;25.40;99.90;;;;;;4928603;29;20036;-79
2023/08/25 08:27:15;;;;;;;2.50;2.30;;;25.30;99.90;;;;;;4928182;29;20043;-80
2023/08/25 08:29:42;;;;;;;3.00;2.53;;;25.10;99.90;;;;;;4922688;29;20042;-79
2023/08/25 08:32:08;;;;;;;3.22;2.22;;;25.00;99.90;;;;;;4931207;29;20515;-83
2023/08/25 08:34:35;;;;;;;5.55;2.85;;;24.70;99.90;;;;;;4935098;29;20059;-81
2023/08/25 08:37:00;;;;;;;2.45;2.03;;;24.60;99.90;;;;;;4931390;29;20504;-82
2023/08/25 08:39:27;;;;;;;3.03;2.40;;;24.50;99.90;;;;;;4936020;29;20096;-82
2023/08/25 08:41:53;;;;;;;3.95;2.55;;;24.40;99.90;;;;;;4930361;29;20385;-81
2023/08/25 08:44:21;;;;;;;3.45;2.50;;;24.20;99.90;;;;;;4926637;29;20400;-80
2023/08/25 08:46:49;;;;;;;3.75;2.63;;;24.00;99.90;;;;;;4928954;29;20720;-82
2023/08/25 08:49:14;;;;;;;2.95;2.13;;;23.90;99.90;;;;;;4930398;29;20060;-78
2023/08/25 08:51:44;;;;;;;2.58;2.38;;;23.80;99.90;;;;;;4934320;29;20040;-80
2023/08/25 08:54:11;;;;;;;3.67;2.30;;;23.60;99.90;;;;;;4932462;29;20040;-81
2023/08/25 08:56:37;;;;;;;3.30;2.35;;;23.40;99.90;;;;;;4931596;29;20408;-80
2023/08/25 08:59:03;;;;;;;3.55;2.67;;;23.30;99.90;;;;;;4930728;29;20094;-80
2023/08/25 09:01:30;;;;;;;4.55;2.67;;;23.10;99.90;;;;;;4926125;29;20032;-81
2023/08/25 09:04:00;;;;;;;2.97;2.45;;;22.90;99.90;;;;;;4922148;29;20501;-79
2023/08/25 09:06:33;;;;;;;4.43;2.90;;;22.80;99.90;;;;;;4924416;29;20074;-79
2023/08/25 09:09:04;;;;;;;2.47;2.28;;;22.60;99.90;;;;;;4926085;29;20031;-80
2023/08/25 09:11:30;;;;;;;4.70;2.75;;;22.40;99.90;;;;;;4930477;29;20039;-80
2023/08/25 09:13:58;;;;;;;5.85;2.75;;;22.20;99.90;;;;;;4906687;29;20040;-80
2023/08/25 09:16:25;;;;;;;7.13;3.00;;;21.90;99.90;;;;;;4929790;29;22001;-79
2023/08/25 09:19:16;;;;;;;7.15;3.08;;;21.70;99.90;;;;;;4928563;29;20036;-80
2023/08/25 09:21:48;;;;;;;6.40;3.40;;;21.20;99.90;;;;;;4925858;29;20472;-79
2023/08/25 09:24:21;;;;;;;5.30;2.88;;;20.80;99.90;;;;;;4941757;28;20028;-79
2023/08/25 09:26:48;;;;;;;3.70;3.10;;;20.60;99.90;;;;;;4925293;29;20035;-79
2023/08/25 09:29:15;;;;;;;3.40;2.85;;;20.40;99.90;;;;;;4921936;29;20455;-80
2023/08/25 09:31:41;;;;;;;3.85;3.13;;;20.30;99.90;;;;;;4925079;29;20484;-78
2023/08/25 09:34:09;;;;;;;5.68;4.07;;;20.20;99.90;;;;;;4933381;29;20035;-79
2023/08/25 09:36:52;;;;;;;4.85;4.22;;;20.10;99.90;;;;;;4919096;29;20513;-79
2023/08/25 09:39:19;;;;;;;7.18;3.88;;;20.00;99.90;;;;;;4929347;29;20032;-81
2023/08/25 09:41:46;;;;;;;4.57;3.50;;;20.00;99.90;;;;;;4929109;29;20453;-82
2023/08/25 09:44:12;;;;;;;7.05;3.95;;;20.00;99.90;;;;;;4935654;29;20019;-79
2023/08/25 09:46:38;;;;;;;5.55;4.15;;;20.00;99.90;;;;;;4927545;28;20098;-81
2023/08/25 09:49:06;;;;;;;4.25;3.42;;;20.00;99.90;;;;;;4939460;29;20039;-79
2023/08/25 09:51:45;;;;;;;4.72;3.72;;;20.00;99.90;;;;;;4931429;29;20150;-78
2023/08/25 09:54:28;;;;;;;8.18;4.50;;;20.10;99.90;;;;;;4913108;29;20206;-80
2023/08/25 09:56:56;;;;;;;4.97;4.18;;;20.20;99.90;;;;;;4935939;29;20051;-80
2023/08/25 09:59:21;;;;;;;5.88;4.22;;;20.20;99.90;;;;;;4928512;29;20382;-80
2023/08/25 10:01:47;;;;;;;4.55;4.15;;;20.40;99.90;;;;;;4928439;29;20032;-80
2023/08/25 10:04:13;;;;;;;6.07;4.18;;;20.20;99.90;;;;;;4929561;29;20051;-80
2023/08/25 10:06:40;;;;;;;10.48;4.57;;;20.20;99.90;;;;;;4920295;29;20024;-80
2023/08/25 10:09:07;;;;;;;10.48;6.00;;;20.30;99.90;;;;;;4918072;29;20036;-81
2023/08/25 10:11:45;;;;;;;8.40;5.20;;;20.30;99.90;;;;;;4926105;29;20042;-80
2023/08/25 10:14:12;;;;;;;9.48;5.82;;;20.30;99.90;;;;;;4929368;29;20044;-81
2023/08/25 10:16:46;;;;;;;8.93;4.80;;;20.40;99.90;;;;;;4927348;29;20500;-80
2023/08/25 10:19:16;;;;;;;11.80;5.60;;;20.50;99.90;;;;;;4925156;29;20111;-81
2023/08/25 10:21:44;;;;;;;9.90;5.00;;;20.70;99.90;;;;;;4907770;29;20071;-82
2023/08/25 10:24:11;;;;;;;5.85;4.82;;;20.90;99.90;;;;;;4914251;29;20040;-82
2023/08/25 10:26:37;;;;;;;6.78;5.10;;;21.10;99.90;;;;;;4918750;29;20035;-81
2023/08/25 10:29:04;;;;;;;7.40;4.15;;;21.20;99.90;;;;;;4897578;29;20523;-81
2023/08/25 10:31:32;;;;;;;6.50;4.60;;;21.40;99.90;;;;;;4914830;29;20032;-82
2023/08/25 10:33:58;;;;;;;7.75;4.80;;;21.50;99.90;;;;;;4921071;29;20043;-82
2023/08/25 10:36:24;;;;;;;4.00;3.60;;;21.70;99.90;;;;;;4945650;28;20114;-83
2023/08/25 10:39:00;;;;;;;6.78;4.22;;;21.70;99.90;;;;;;4929807;29;20242;-82
2023/08/25 10:41:27;;;;;;;4.53;3.50;;;21.90;99.90;;;;;;4927500;29;20116;-82
2023/08/25 10:43:55;;;;;;;4.30;3.50;;;22.00;99.90;;;;;;4904604;29;20040;-82
2023/08/25 10:46:22;;;;;;;5.97;3.40;;;22.20;99.90;;;;;;4932398;28;20031;-82
2023/08/25 10:49:02;;;;;;;5.35;3.63;;;22.30;99.90;;;;;;4931179;29;20034;-83
2023/08/25 10:51:28;;;;;;;4.13;3.35;;;22.40;99.90;;;;;;4926535;29;20028;-83
2023/08/25 10:53:54;;;;;;;4.68;2.80;;;22.50;99.90;;;;;;4936137;29;20555;-82
2023/08/25 10:56:23;;;;;;;3.33;2.58;;;22.50;99.90;;;;;;4937402;29;20035;-82
2023/08/25 10:59:09;;;;;;;3.88;2.60;;;22.40;99.90;;;;;;4921679;29;20083;-82
2023/08/25 11:01:38;;;;;;;3.78;2.80;;;22.30;99.90;;;;;;4931668;29;20060;-81
2023/08/25 11:04:07;;;;;;;3.13;2.83;;;22.20;99.90;;;;;;4941668;29;20381;-83
2023/08/25 11:06:45;;;;;;;4.00;2.70;;;22.20;99.90;;;;;;4934580;28;20329;-82
2023/08/25 11:09:23;;;;;;;5.10;2.80;;;22.20;99.90;;;;;;4930484;29;20047;-83
2023/08/25 11:11:57;;;;;;;3.40;2.25;;;22.10;99.90;;;;;;4937213;29;20118;-81
2023/08/25 11:14:34;;;;;;;3.85;2.58;;;22.10;99.90;;;;;;4932915;29;20099;-82
2023/08/25 11:17:05;;;;;;;4.03;2.83;;;22.20;99.90;;;;;;4934902;29;20576;-82
2023/08/25 11:19:32;;;;;;;3.90;2.55;;;22.10;99.90;;;;;;4921008;29;20075;-82
2023/08/25 11:22:00;;;;;;;3.55;2.50;;;22.10;99.90;;;;;;4936722;29;20523;-81
2023/08/25 11:24:29;;;;;;;3.13;2.55;;;22.10;99.90;;;;;;4926673;29;20036;-80
2023/08/25 11:26:55;;;;;;;3.92;2.47;;;22.30;99.90;;;;;;4930443;29;20066;-82
2023/08/25 11:29:44;;;;;;;5.18;2.47;;;22.20;99.90;;;;;;4929493;29;20055;-82
2023/08/25 11:32:12;;;;;;;5.88;2.80;;;22.10;99.90;;;;;;4933408;29;20083;-81
2023/08/25 11:34:38;;;;;;;4.10;2.45;;;22.20;99.90;;;;;;4926231;29;20049;-82
2023/08/25 11:37:04;;;;;;;5.82;2.75;;;22.40;99.90;;;;;;4927989;29;20039;-83
2023/08/25 11:39:30;;;;;;;3.72;2.75;;;22.60;99.90;;;;;;4927212;29;20060;-82
2023/08/25 11:41:56;;;;;;;2.83;2.55;;;22.70;99.90;;;;;;4928681;29;20044;-82
2023/08/25 11:44:24;;;;;;;2.40;2.17;;;22.90;99.90;;;;;;4931273;29;20032;-81
2023/08/25 11:46:52;;;;;;;6.18;2.22;;;23.10;99.90;;;;;;4929804;29;20110;-81
2023/08/25 11:49:20;;;;;;;4.22;2.10;;;23.30;99.90;;;;;;4926876;29;20032;-82
2023/08/25 11:51:49;;;;;;;3.95;2.15;;;23.40;99.90;;;;;;4921977;29;20110;-82
2023/08/25 11:54:15;;;;;;;2.40;2.20;;;23.50;99.90;;;;;;4930713;29;20532;-80
2023/08/25 11:56:51;;;;;;;3.83;2.20;;;23.50;99.90;;;;;;4928538;29;20031;-80
2023/08/25 11:59:19;;;;;;;4.63;2.10;;;23.40;99.90;;;;;;4934819;29;20027;-81
2023/08/25 12:01:51;;;;;;;2.05;1.85;;;23.40;99.90;;;;;;4927767;29;20044;-80
2023/08/25 12:04:25;;;;;;;1.63;1.52;;;23.40;99.90;;;;;;4939059;29;20023;-80
2023/08/25 12:06:56;;;;;;;3.33;2.10;;;23.40;99.90;;;;;;4924864;29;20527;-81
2023/08/25 12:09:24;;;;;;;3.03;1.63;;;23.40;99.90;;;;;;4928737;29;20036;-81
2023/08/25 12:11:52;;;;;;;7.18;2.40;;;23.40;99.90;;;;;;4926401;29;20547;-80
2023/08/25 12:14:29;;;;;;;3.22;1.80;;;23.50;99.90;;;;;;4922483;29;20072;-80
2023/08/25 12:16:56;;;;;;;5.18;2.20;;;23.60;99.90;;;;;;4928359;29;20062;-80
2023/08/25 12:19:24;;;;;;;2.85;1.80;;;23.80;99.90;;;;;;4935982;29;20036;-80
2023/08/25 12:21:51;;;;;;;3.72;1.80;;;24.00;99.90;;;;;;4921431;29;20036;-82
2023/08/25 12:24:17;;;;;;;4.57;1.95;;;24.10;99.90;;;;;;4933851;29;20035;-82
2023/08/25 12:26:43;;;;;;;2.65;2.00;;;24.10;99.90;;;;;;4939573;28;20027;-81
2023/08/25 12:29:09;;;;;;;6.72;1.92;;;24.10;99.90;;;;;;4933163;29;20142;-82
2023/08/25 12:31:35;;;;;;;2.78;1.80;;;24.10;99.90;;;;;;4922520;29;20666;-81
2023/08/25 12:34:01;;;;;;;2.22;1.90;;;24.10;99.90;;;;;;4945027;29;20047;-80
2023/08/25 12:36:28;;;;;;;2.95;2.40;;;24.30;99.90;;;;;;4941275;28;20044;-81
2023/08/25 12:38:54;;;;;;;3.83;2.10;;;24.40;99.90;;;;;;4937047;29;20046;-82
2023/08/25 12:41:19;;;;;;;3.53;2.13;;;24.40;99.90;;;;;;4939662;29;20032;-83
2023/08/25 12:43:45;;;;;;;3.40;1.95;;;24.40;99.90;;;;;;4914598;29;20040;-82
2023/08/25 12:46:11;;;;;;;2.33;2.08;;;24.30;99.90;;;;;;4926308;29;20031;-82
2023/08/25 12:48:37;;;;;;;2.17;1.80;;;24.30;99.90;;;;;;4940011;29;20499;-80